sensor_id;sensor_type;location;lat;lon;timestamp;P1;durP1;ratioP1;P2;durP2;ratioP2
60318;SDS011;46163;52.306;5.634;2023-06-14T00:01:19;3.45;;;2.42;;
60318;SDS011;46163;52.306;5.634;2023-06-14T00:03:47;3.78;;;2.13;;
60318;SDS011;46163;52.306;5.634;2023-06-14T00:06:13;6.38;;;2.42;;
60318;SDS011;46163;52.306;5.634;2023-06-14T00:08:39;2.92;;;2.10;;
60318;SDS011;46163;52.306;5.634;2023-06-14T00:11:05;4.28;;;2.30;;
60318;SDS011;46163;52.306;5.634;2023-06-14T00:13:32;6.97;;;2.50;;
60318;SDS011;46163;52.306;5.634;2023-06-14T00:15:58;2.60;;;2.38;;
60318;SDS011;46163;52.306;5.634;2023-06-14T00:18:24;3.08;;;2.22;;
60318;SDS011;46163;52.306;5.634;2023-06-14T00:20:50;3.10;;;2.30;;
60318;SDS011;46163;52.306;5.634;2023-06-14T00:23:16;3.58;;;2.22;;
60318;SDS011;46163;52.306;5.634;2023-06-14T00:25:42;3.38;;;2.00;;
60318;SDS011;46163;52.306;5.634;2023-06-14T00:28:07;3.20;;;2.13;;
60318;SDS011;46163;52.306;5.634;2023-06-14T00:30:33;2.30;;;2.10;;
60318;SDS011;46163;52.306;5.634;2023-06-14T00:32:58;3.40;;;2.17;;
60318;SDS011;46163;52.306;5.634;2023-06-14T00:35:26;3.30;;;2.20;;
60318;SDS011;46163;52.306;5.634;2023-06-14T00:37:52;6.05;;;2.58;;
60318;SDS011;46163;52.306;5.634;2023-06-14T00:40:19;4.03;;;2.17;;
60318;SDS011;46163;52.306;5.634;2023-06-14T00:42:45;3.67;;;2.10;;
60318;SDS011;46163;52.306;5.634;2023-06-14T00:45:11;8.02;;;2.40;;
60318;SDS011;46163;52.306;5.634;2023-06-14T00:47:37;4.00;;;2.17;;
60318;SDS011;46163;52.306;5.634;2023-06-14T00:50:05;6.03;;;2.25;;
60318;SDS011;46163;52.306;5.634;2023-06-14T00:52:32;4.75;;;2.17;;
60318;SDS011;46163;52.306;5.634;2023-06-14T00:54:57;2.40;;;2.15;;
60318;SDS011;46163;52.306;5.634;2023-06-14T00:57:23;4.32;;;2.33;;
60318;SDS011;46163;52.306;5.634;2023-06-14T00:59:49;2.75;;;2.10;;
60318;SDS011;46163;52.306;5.634;2023-06-14T01:02:15;5.07;;;2.10;;
60318;SDS011;46163;52.306;5.634;2023-06-14T01:10:26;2.47;;;2.10;;
60318;SDS011;46163;52.306;5.634;2023-06-14T01:13:38;5.03;;;2.20;;
60318;SDS011;46163;52.306;5.634;2023-06-14T01:16:08;2.75;;;1.90;;
60318;SDS011;46163;52.306;5.634;2023-06-14T01:18:35;2.38;;;2.10;;
60318;SDS011;46163;52.306;5.634;2023-06-14T01:21:01;3.13;;;2.03;;
60318;SDS011;46163;52.306;5.634;2023-06-14T01:23:30;2.65;;;2.00;;
60318;SDS011;46163;52.306;5.634;2023-06-14T01:25:58;2.75;;;2.22;;
60318;SDS011;46163;52.306;5.634;2023-06-14T01:28:25;2.43;;;2.00;;
60318;SDS011;46163;52.306;5.634;2023-06-14T01:30:57;13.10;;;2.10;;
60318;SDS011;46163;52.306;5.634;2023-06-14T01:33:26;2.15;;;1.95;;
60318;SDS011;46163;52.306;5.634;2023-06-14T01:35:53;3.10;;;2.33;;
60318;SDS011;46163;52.306;5.634;2023-06-14T01:38:23;4.97;;;2.22;;
60318;SDS011;46163;52.306;5.634;2023-06-14T01:40:51;3.95;;;2.30;;
60318;SDS011;46163;52.306;5.634;2023-06-14T01:43:19;4.68;;;2.20;;
60318;SDS011;46163;52.306;5.634;2023-06-14T01:45:46;6.88;;;2.42;;
60318;SDS011;46163;52.306;5.634;2023-06-14T01:48:14;4.00;;;2.10;;
60318;SDS011;46163;52.306;5.634;2023-06-14T01:50:40;2.72;;;2.42;;
60318;SDS011;46163;52.306;5.634;2023-06-14T01:53:09;2.53;;;2.10;;
60318;SDS011;46163;52.306;5.634;2023-06-14T01:55:35;5.15;;;2.00;;
60318;SDS011;46163;52.306;5.634;2023-06-14T01:58:03;3.65;;;2.10;;
60318;SDS011;46163;52.306;5.634;2023-06-14T02:00:29;3.97;;;2.10;;
60318;SDS011;46163;52.306;5.634;2023-06-14T02:02:54;3.03;;;2.30;;
60318;SDS011;46163;52.306;5.634;2023-06-14T02:05:20;2.55;;;2.10;;
60318;SDS011;46163;52.306;5.634;2023-06-14T02:07:46;3.50;;;1.80;;
60318;SDS011;46163;52.306;5.634;2023-06-14T02:10:12;6.78;;;1.98;;
60318;SDS011;46163;52.306;5.634;2023-06-14T02:12:38;2.40;;;2.10;;
60318;SDS011;46163;52.306;5.634;2023-06-14T02:15:03;5.25;;;2.30;;
60318;SDS011;46163;52.306;5.634;2023-06-14T02:17:30;5.35;;;2.25;;
60318;SDS011;46163;52.306;5.634;2023-06-14T02:19:56;2.38;;;2.03;;
60318;SDS011;46163;52.306;5.634;2023-06-14T02:22:22;4.82;;;2.03;;
60318;SDS011;46163;52.306;5.634;2023-06-14T02:24:48;6.30;;;2.00;;
60318;SDS011;46163;52.306;5.634;2023-06-14T02:27:15;7.55;;;2.13;;
60318;SDS011;46163;52.306;5.634;2023-06-14T02:29:40;7.85;;;2.72;;
60318;SDS011;46163;52.306;5.634;2023-06-14T02:32:09;4.50;;;2.00;;
60318;SDS011;46163;52.306;5.634;2023-06-14T02:34:35;2.92;;;2.10;;
60318;SDS011;46163;52.306;5.634;2023-06-14T02:37:05;3.25;;;2.08;;
60318;SDS011;46163;52.306;5.634;2023-06-14T02:39:31;5.45;;;2.30;;
60318;SDS011;46163;52.306;5.634;2023-06-14T02:41:57;5.70;;;2.15;;
60318;SDS011;46163;52.306;5.634;2023-06-14T02:44:25;5.38;;;2.10;;
60318;SDS011;46163;52.306;5.634;2023-06-14T02:46:54;2.63;;;1.98;;
60318;SDS011;46163;52.306;5.634;2023-06-14T02:49:20;3.88;;;2.00;;
60318;SDS011;46163;52.306;5.634;2023-06-14T02:51:46;2.22;;;1.95;;
60318;SDS011;46163;52.306;5.634;2023-06-14T02:54:14;5.05;;;2.00;;
60318;SDS011;46163;52.306;5.634;2023-06-14T02:56:40;2.95;;;2.10;;
60318;SDS011;46163;52.306;5.634;2023-06-14T02:59:08;3.85;;;1.88;;
60318;SDS011;46163;52.306;5.634;2023-06-14T03:01:34;3.25;;;2.30;;
60318;SDS011;46163;52.306;5.634;2023-06-14T03:04:06;3.33;;;2.20;;
60318;SDS011;46163;52.306;5.634;2023-06-14T03:06:32;3.55;;;2.03;;
60318;SDS011;46163;52.306;5.634;2023-06-14T03:08:58;3.47;;;2.42;;
60318;SDS011;46163;52.306;5.634;2023-06-14T03:11:26;6.38;;;2.10;;
60318;SDS011;46163;52.306;5.634;2023-06-14T03:13:52;2.53;;;2.08;;
60318;SDS011;46163;52.306;5.634;2023-06-14T03:16:18;3.47;;;2.17;;
60318;SDS011;46163;52.306;5.634;2023-06-14T03:18:49;3.83;;;2.28;;
60318;SDS011;46163;52.306;5.634;2023-06-14T03:21:15;2.85;;;2.10;;
60318;SDS011;46163;52.306;5.634;2023-06-14T03:23:41;3.53;;;2.13;;
60318;SDS011;46163;52.306;5.634;2023-06-14T03:26:09;4.50;;;2.08;;
60318;SDS011;46163;52.306;5.634;2023-06-14T03:28:38;5.00;;;2.10;;
60318;SDS011;46163;52.306;5.634;2023-06-14T03:31:03;4.22;;;2.08;;
60318;SDS011;46163;52.306;5.634;2023-06-14T03:33:29;5.47;;;2.10;;
60318;SDS011;46163;52.306;5.634;2023-06-14T03:35:56;4.97;;;2.38;;
60318;SDS011;46163;52.306;5.634;2023-06-14T03:38:22;3.65;;;2.17;;
60318;SDS011;46163;52.306;5.634;2023-06-14T03:40:50;3.15;;;2.13;;
60318;SDS011;46163;52.306;5.634;2023-06-14T03:43:16;4.10;;;2.17;;
60318;SDS011;46163;52.306;5.634;2023-06-14T03:45:41;3.15;;;2.03;;
60318;SDS011;46163;52.306;5.634;2023-06-14T03:48:06;2.97;;;2.20;;
60318;SDS011;46163;52.306;5.634;2023-06-14T03:50:34;4.38;;;2.20;;
60318;SDS011;46163;52.306;5.634;2023-06-14T03:53:00;4.25;;;2.00;;
60318;SDS011;46163;52.306;5.634;2023-06-14T03:55:26;2.92;;;2.08;;
60318;SDS011;46163;52.306;5.634;2023-06-14T03:57:56;2.95;;;2.30;;
60318;SDS011;46163;52.306;5.634;2023-06-14T04:00:22;2.20;;;2.00;;
60318;SDS011;46163;52.306;5.634;2023-06-14T04:02:48;2.92;;;2.10;;
60318;SDS011;46163;52.306;5.634;2023-06-14T04:05:13;3.35;;;2.30;;
60318;SDS011;46163;52.306;5.634;2023-06-14T04:07:42;5.10;;;2.22;;
60318;SDS011;46163;52.306;5.634;2023-06-14T04:10:10;5.03;;;2.20;;
60318;SDS011;46163;52.306;5.634;2023-06-14T04:12:37;2.90;;;2.13;;
60318;SDS011;46163;52.306;5.634;2023-06-14T04:15:03;4.60;;;2.33;;
60318;SDS011;46163;52.306;5.634;2023-06-14T04:17:30;3.83;;;2.40;;
60318;SDS011;46163;52.306;5.634;2023-06-14T04:19:58;3.05;;;2.20;;
60318;SDS011;46163;52.306;5.634;2023-06-14T04:22:25;4.65;;;2.50;;
60318;SDS011;46163;52.306;5.634;2023-06-14T04:24:53;3.70;;;2.00;;
60318;SDS011;46163;52.306;5.634;2023-06-14T04:29:50;3.35;;;2.10;;
60318;SDS011;46163;52.306;5.634;2023-06-14T04:32:21;7.85;;;2.40;;
60318;SDS011;46163;52.306;5.634;2023-06-14T04:34:54;3.58;;;2.72;;
60318;SDS011;46163;52.306;5.634;2023-06-14T04:37:20;2.35;;;2.15;;
60318;SDS011;46163;52.306;5.634;2023-06-14T04:39:46;3.55;;;2.30;;
60318;SDS011;46163;52.306;5.634;2023-06-14T04:42:12;4.00;;;2.10;;
60318;SDS011;46163;52.306;5.634;2023-06-14T04:44:42;2.85;;;2.20;;
60318;SDS011;46163;52.306;5.634;2023-06-14T04:47:09;3.10;;;1.95;;
60318;SDS011;46163;52.306;5.634;2023-06-14T04:49:35;4.78;;;2.28;;
60318;SDS011;46163;52.306;5.634;2023-06-14T04:52:01;3.55;;;2.00;;
60318;SDS011;46163;52.306;5.634;2023-06-14T04:54:26;4.72;;;2.00;;
60318;SDS011;46163;52.306;5.634;2023-06-14T04:56:52;2.45;;;2.13;;
60318;SDS011;46163;52.306;5.634;2023-06-14T04:59:20;3.45;;;1.98;;
60318;SDS011;46163;52.306;5.634;2023-06-14T05:01:48;2.47;;;1.80;;
60318;SDS011;46163;52.306;5.634;2023-06-14T05:04:17;4.25;;;2.28;;
60318;SDS011;46163;52.306;5.634;2023-06-14T05:06:43;4.30;;;2.15;;
60318;SDS011;46163;52.306;5.634;2023-06-14T05:09:15;3.67;;;2.33;;
60318;SDS011;46163;52.306;5.634;2023-06-14T05:11:42;3.80;;;2.10;;
60318;SDS011;46163;52.306;5.634;2023-06-14T05:14:09;3.20;;;1.90;;
60318;SDS011;46163;52.306;5.634;2023-06-14T05:16:35;2.33;;;2.00;;
60318;SDS011;46163;52.306;5.634;2023-06-14T05:19:01;4.30;;;2.05;;
60318;SDS011;46163;52.306;5.634;2023-06-14T05:21:27;2.50;;;2.10;;
60318;SDS011;46163;52.306;5.634;2023-06-14T05:23:53;3.53;;;2.03;;
60318;SDS011;46163;52.306;5.634;2023-06-14T05:26:21;2.75;;;2.05;;
60318;SDS011;46163;52.306;5.634;2023-06-14T05:28:53;3.50;;;1.88;;
60318;SDS011;46163;52.306;5.634;2023-06-14T05:31:22;3.47;;;2.20;;
60318;SDS011;46163;52.306;5.634;2023-06-14T05:33:48;2.72;;;2.05;;
60318;SDS011;46163;52.306;5.634;2023-06-14T05:36:14;6.82;;;1.90;;
60318;SDS011;46163;52.306;5.634;2023-06-14T05:38:40;2.35;;;1.98;;
60318;SDS011;46163;52.306;5.634;2023-06-14T05:41:05;8.65;;;2.15;;
60318;SDS011;46163;52.306;5.634;2023-06-14T05:43:31;3.88;;;2.33;;
60318;SDS011;46163;52.306;5.634;2023-06-14T05:45:56;2.25;;;1.75;;
60318;SDS011;46163;52.306;5.634;2023-06-14T05:48:22;2.58;;;2.13;;
60318;SDS011;46163;52.306;5.634;2023-06-14T05:50:47;2.10;;;1.92;;
60318;SDS011;46163;52.306;5.634;2023-06-14T05:53:13;2.90;;;2.25;;
60318;SDS011;46163;52.306;5.634;2023-06-14T05:55:39;5.35;;;2.30;;
60318;SDS011;46163;52.306;5.634;2023-06-14T05:58:04;2.38;;;2.03;;
60318;SDS011;46163;52.306;5.634;2023-06-14T06:00:30;4.32;;;2.38;;
60318;SDS011;46163;52.306;5.634;2023-06-14T06:02:58;5.68;;;2.30;;
60318;SDS011;46163;52.306;5.634;2023-06-14T06:05:24;3.67;;;2.25;;
60318;SDS011;46163;52.306;5.634;2023-06-14T06:07:49;6.10;;;2.20;;
60318;SDS011;46163;52.306;5.634;2023-06-14T06:10:15;4.70;;;2.05;;
60318;SDS011;46163;52.306;5.634;2023-06-14T06:12:41;4.97;;;2.17;;
60318;SDS011;46163;52.306;5.634;2023-06-14T06:15:07;3.20;;;2.20;;
60318;SDS011;46163;52.306;5.634;2023-06-14T06:17:37;5.00;;;2.22;;
60318;SDS011;46163;52.306;5.634;2023-06-14T06:20:03;2.30;;;2.10;;
60318;SDS011;46163;52.306;5.634;2023-06-14T06:24:56;4.35;;;2.28;;
60318;SDS011;46163;52.306;5.634;2023-06-14T06:27:22;5.38;;;2.00;;
60318;SDS011;46163;52.306;5.634;2023-06-14T06:29:49;5.78;;;2.20;;
60318;SDS011;46163;52.306;5.634;2023-06-14T06:32:16;3.22;;;2.28;;
60318;SDS011;46163;52.306;5.634;2023-06-14T06:34:42;2.47;;;2.10;;
60318;SDS011;46163;52.306;5.634;2023-06-14T06:37:10;3.45;;;2.30;;
60318;SDS011;46163;52.306;5.634;2023-06-14T06:39:36;3.70;;;2.33;;
60318;SDS011;46163;52.306;5.634;2023-06-14T06:42:01;2.33;;;2.13;;
60318;SDS011;46163;52.306;5.634;2023-06-14T06:44:30;2.67;;;2.10;;
60318;SDS011;46163;52.306;5.634;2023-06-14T06:46:55;5.35;;;2.42;;
60318;SDS011;46163;52.306;5.634;2023-06-14T06:49:22;2.65;;;2.17;;
60318;SDS011;46163;52.306;5.634;2023-06-14T06:52:03;3.10;;;1.83;;
60318;SDS011;46163;52.306;5.634;2023-06-14T06:54:30;2.92;;;2.20;;
60318;SDS011;46163;52.306;5.634;2023-06-14T06:56:56;3.28;;;2.20;;
60318;SDS011;46163;52.306;5.634;2023-06-14T06:59:22;3.30;;;2.13;;
60318;SDS011;46163;52.306;5.634;2023-06-14T07:01:48;5.47;;;2.03;;
60318;SDS011;46163;52.306;5.634;2023-06-14T07:04:14;4.00;;;2.15;;
60318;SDS011;46163;52.306;5.634;2023-06-14T07:06:41;3.20;;;2.17;;
60318;SDS011;46163;52.306;5.634;2023-06-14T07:09:09;2.88;;;1.90;;
60318;SDS011;46163;52.306;5.634;2023-06-14T07:11:41;2.53;;;1.90;;
60318;SDS011;46163;52.306;5.634;2023-06-14T07:14:07;2.92;;;1.90;;
60318;SDS011;46163;52.306;5.634;2023-06-14T07:16:33;5.72;;;1.70;;
60318;SDS011;46163;52.306;5.634;2023-06-14T07:18:58;2.90;;;1.60;;
60318;SDS011;46163;52.306;5.634;2023-06-14T07:21:25;5.32;;;2.53;;
60318;SDS011;46163;52.306;5.634;2023-06-14T07:23:52;3.88;;;1.60;;
60318;SDS011;46163;52.306;5.634;2023-06-14T07:26:22;3.65;;;1.80;;
60318;SDS011;46163;52.306;5.634;2023-06-14T07:28:48;2.40;;;1.50;;
60318;SDS011;46163;52.306;5.634;2023-06-14T07:31:14;2.35;;;1.60;;
60318;SDS011;46163;52.306;5.634;2023-06-14T07:33:41;2.97;;;1.53;;
60318;SDS011;46163;52.306;5.634;2023-06-14T07:36:07;2.90;;;1.65;;
60318;SDS011;46163;52.306;5.634;2023-06-14T07:38:33;8.68;;;1.70;;
60318;SDS011;46163;52.306;5.634;2023-06-14T07:40:59;3.95;;;1.70;;
60318;SDS011;46163;52.306;5.634;2023-06-14T07:43:25;5.13;;;1.42;;
60318;SDS011;46163;52.306;5.634;2023-06-14T07:45:50;3.15;;;1.50;;
60318;SDS011;46163;52.306;5.634;2023-06-14T07:48:16;2.08;;;1.38;;
60318;SDS011;46163;52.306;5.634;2023-06-14T07:50:42;2.60;;;1.60;;
60318;SDS011;46163;52.306;5.634;2023-06-14T07:53:08;6.00;;;1.50;;
60318;SDS011;46163;52.306;5.634;2023-06-14T07:55:33;2.97;;;1.20;;
60318;SDS011;46163;52.306;5.634;2023-06-14T07:58:02;1.48;;;1.38;;
60318;SDS011;46163;52.306;5.634;2023-06-14T08:00:31;3.42;;;1.80;;
60318;SDS011;46163;52.306;5.634;2023-06-14T08:02:57;1.40;;;1.30;;
60318;SDS011;46163;52.306;5.634;2023-06-14T08:07:49;1.37;;;1.20;;
60318;SDS011;46163;52.306;5.634;2023-06-14T08:10:15;3.30;;;1.43;;
60318;SDS011;46163;52.306;5.634;2023-06-14T08:12:41;4.70;;;1.50;;
60318;SDS011;46163;52.306;5.634;2023-06-14T08:15:07;2.22;;;1.30;;
60318;SDS011;46163;52.306;5.634;2023-06-14T08:17:33;1.20;;;1.20;;
60318;SDS011;46163;52.306;5.634;2023-06-14T08:20:00;4.05;;;1.40;;
60318;SDS011;46163;52.306;5.634;2023-06-14T08:22:26;2.42;;;1.33;;
60318;SDS011;46163;52.306;5.634;2023-06-14T08:24:53;1.42;;;1.20;;
60318;SDS011;46163;52.306;5.634;2023-06-14T08:27:19;3.95;;;1.48;;
60318;SDS011;46163;52.306;5.634;2023-06-14T08:29:45;1.30;;;1.20;;
60318;SDS011;46163;52.306;5.634;2023-06-14T08:32:12;1.80;;;1.23;;
60318;SDS011;46163;52.306;5.634;2023-06-14T08:34:37;1.90;;;1.10;;
60318;SDS011;46163;52.306;5.634;2023-06-14T08:37:05;4.93;;;0.90;;
60318;SDS011;46163;52.306;5.634;2023-06-14T08:39:31;2.78;;;1.20;;
60318;SDS011;46163;52.306;5.634;2023-06-14T08:41:57;4.30;;;1.30;;
60318;SDS011;46163;52.306;5.634;2023-06-14T08:44:23;1.55;;;1.45;;
60318;SDS011;46163;52.306;5.634;2023-06-14T08:46:49;2.97;;;1.40;;
60318;SDS011;46163;52.306;5.634;2023-06-14T08:49:17;1.23;;;1.10;;
60318;SDS011;46163;52.306;5.634;2023-06-14T08:51:43;2.27;;;1.07;;
60318;SDS011;46163;52.306;5.634;2023-06-14T08:54:10;1.27;;;1.02;;
60318;SDS011;46163;52.306;5.634;2023-06-14T08:56:40;1.90;;;1.30;;
60318;SDS011;46163;52.306;5.634;2023-06-14T08:59:06;1.70;;;1.40;;
60318;SDS011;46163;52.306;5.634;2023-06-14T09:01:34;1.30;;;1.20;;
60318;SDS011;46163;52.306;5.634;2023-06-14T09:04:00;1.80;;;1.17;;
60318;SDS011;46163;52.306;5.634;2023-06-14T09:08:53;2.10;;;1.15;;
60318;SDS011;46163;52.306;5.634;2023-06-14T09:11:21;1.88;;;1.40;;
60318;SDS011;46163;52.306;5.634;2023-06-14T09:13:48;8.63;;;1.40;;
60318;SDS011;46163;52.306;5.634;2023-06-14T09:16:14;2.60;;;1.30;;
60318;SDS011;46163;52.306;5.634;2023-06-14T09:18:40;1.43;;;1.33;;
60318;SDS011;46163;52.306;5.634;2023-06-14T09:21:09;3.25;;;1.33;;
60318;SDS011;46163;52.306;5.634;2023-06-14T09:23:45;2.70;;;1.23;;
60318;SDS011;46163;52.306;5.634;2023-06-14T09:28:43;1.10;;;1.10;;
60318;SDS011;46163;52.306;5.634;2023-06-14T09:31:13;1.35;;;1.20;;
60318;SDS011;46163;52.306;5.634;2023-06-14T09:33:44;5.30;;;1.30;;
60318;SDS011;46163;52.306;5.634;2023-06-14T09:36:23;3.33;;;1.27;;
60318;SDS011;46163;52.306;5.634;2023-06-14T09:39:00;1.77;;;1.20;;
60318;SDS011;46163;52.306;5.634;2023-06-14T09:44:00;4.20;;;1.40;;
60318;SDS011;46163;52.306;5.634;2023-06-14T09:46:27;1.20;;;1.13;;
60318;SDS011;46163;52.306;5.634;2023-06-14T09:48:57;2.70;;;1.30;;
60318;SDS011;46163;52.306;5.634;2023-06-14T09:51:23;2.90;;;1.37;;
60318;SDS011;46163;52.306;5.634;2023-06-14T09:53:49;1.48;;;1.15;;
60318;SDS011;46163;52.306;5.634;2023-06-14T09:56:21;1.23;;;1.13;;
60318;SDS011;46163;52.306;5.634;2023-06-14T09:58:53;2.08;;;1.52;;
60318;SDS011;46163;52.306;5.634;2023-06-14T10:01:20;2.33;;;1.40;;
60318;SDS011;46163;52.306;5.634;2023-06-14T10:03:48;2.83;;;1.23;;
60318;SDS011;46163;52.306;5.634;2023-06-14T10:06:20;2.05;;;1.33;;
60318;SDS011;46163;52.306;5.634;2023-06-14T10:08:49;3.92;;;1.30;;
60318;SDS011;46163;52.306;5.634;2023-06-14T10:11:17;1.40;;;1.30;;
60318;SDS011;46163;52.306;5.634;2023-06-14T10:13:43;1.47;;;1.10;;
60318;SDS011;46163;52.306;5.634;2023-06-14T10:18:49;1.08;;;1.02;;
60318;SDS011;46163;52.306;5.634;2023-06-14T10:24:18;2.10;;;1.30;;
60318;SDS011;46163;52.306;5.634;2023-06-14T10:26:53;1.33;;;1.20;;
60318;SDS011;46163;52.306;5.634;2023-06-14T10:29:22;4.13;;;1.30;;
60318;SDS011;46163;52.306;5.634;2023-06-14T10:31:49;1.20;;;1.10;;
60318;SDS011;46163;52.306;5.634;2023-06-14T10:37:24;1.40;;;1.30;;
60318;SDS011;46163;52.306;5.634;2023-06-14T10:39:44;2.25;;;1.13;;
60318;SDS011;46163;52.306;5.634;2023-06-14T10:42:13;2.15;;;1.20;;
60318;SDS011;46163;52.306;5.634;2023-06-14T10:44:45;1.77;;;1.33;;
60318;SDS011;46163;52.306;5.634;2023-06-14T10:52:35;2.22;;;1.08;;
60318;SDS011;46163;52.306;5.634;2023-06-14T10:57:38;1.40;;;1.30;;
60318;SDS011;46163;52.306;5.634;2023-06-14T11:00:08;6.28;;;1.60;;
60318;SDS011;46163;52.306;5.634;2023-06-14T11:05:55;1.60;;;1.50;;
60318;SDS011;46163;52.306;5.634;2023-06-14T11:11:16;1.67;;;1.38;;
60318;SDS011;46163;52.306;5.634;2023-06-14T11:13:44;1.40;;;1.30;;
60318;SDS011;46163;52.306;5.634;2023-06-14T11:16:14;5.55;;;1.58;;
60318;SDS011;46163;52.306;5.634;2023-06-14T11:18:41;2.10;;;1.58;;
60318;SDS011;46163;52.306;5.634;2023-06-14T11:21:09;3.30;;;1.40;;
60318;SDS011;46163;52.306;5.634;2023-06-14T11:23:35;1.40;;;1.40;;
60318;SDS011;46163;52.306;5.634;2023-06-14T11:26:01;2.30;;;1.25;;
60318;SDS011;46163;52.306;5.634;2023-06-14T11:28:39;1.50;;;1.40;;
60318;SDS011;46163;52.306;5.634;2023-06-14T11:31:06;1.77;;;1.58;;
60318;SDS011;46163;52.306;5.634;2023-06-14T11:33:33;2.03;;;1.50;;
60318;SDS011;46163;52.306;5.634;2023-06-14T11:36:01;1.75;;;1.60;;
60318;SDS011;46163;52.306;5.634;2023-06-14T11:38:28;1.95;;;1.50;;
60318;SDS011;46163;52.306;5.634;2023-06-14T11:40:53;7.85;;;1.95;;
60318;SDS011;46163;52.306;5.634;2023-06-14T11:43:23;2.92;;;2.15;;
60318;SDS011;46163;52.306;5.634;2023-06-14T11:45:50;1.77;;;1.52;;
60318;SDS011;46163;52.306;5.634;2023-06-14T11:48:16;2.30;;;1.40;;
60318;SDS011;46163;52.306;5.634;2023-06-14T11:50:42;2.40;;;1.27;;
60318;SDS011;46163;52.306;5.634;2023-06-14T11:53:07;1.40;;;1.30;;
60318;SDS011;46163;52.306;5.634;2023-06-14T11:55:35;1.85;;;1.38;;
60318;SDS011;46163;52.306;5.634;2023-06-14T11:58:05;3.00;;;1.50;;
60318;SDS011;46163;52.306;5.634;2023-06-14T12:00:31;1.55;;;1.45;;
60318;SDS011;46163;52.306;5.634;2023-06-14T12:02:57;2.08;;;1.50;;
60318;SDS011;46163;52.306;5.634;2023-06-14T12:05:24;2.83;;;1.48;;
60318;SDS011;46163;52.306;5.634;2023-06-14T12:07:57;3.95;;;1.58;;
60318;SDS011;46163;52.306;5.634;2023-06-14T12:10:25;1.30;;;1.20;;
60318;SDS011;46163;52.306;5.634;2023-06-14T12:12:51;3.63;;;1.38;;
60318;SDS011;46163;52.306;5.634;2023-06-14T12:15:22;2.45;;;1.50;;
60318;SDS011;46163;52.306;5.634;2023-06-14T12:17:47;1.92;;;1.80;;
60318;SDS011;46163;52.306;5.634;2023-06-14T12:20:13;2.63;;;1.40;;
60318;SDS011;46163;52.306;5.634;2023-06-14T12:25:25;4.28;;;1.50;;
60318;SDS011;46163;52.306;5.634;2023-06-14T12:27:58;4.47;;;1.50;;
60318;SDS011;46163;52.306;5.634;2023-06-14T12:30:28;3.60;;;1.40;;
60318;SDS011;46163;52.306;5.634;2023-06-14T12:32:54;1.85;;;1.38;;
60318;SDS011;46163;52.306;5.634;2023-06-14T12:35:19;2.17;;;1.30;;
60318;SDS011;46163;52.306;5.634;2023-06-14T12:37:45;5.85;;;1.40;;
60318;SDS011;46163;52.306;5.634;2023-06-14T12:40:11;1.88;;;1.50;;
60318;SDS011;46163;52.306;5.634;2023-06-14T12:42:37;2.45;;;1.70;;
60318;SDS011;46163;52.306;5.634;2023-06-14T12:45:02;1.50;;;1.40;;
60318;SDS011;46163;52.306;5.634;2023-06-14T12:47:28;2.40;;;1.63;;
60318;SDS011;46163;52.306;5.634;2023-06-14T12:49:54;1.40;;;1.30;;
60318;SDS011;46163;52.306;5.634;2023-06-14T12:52:20;2.17;;;1.40;;
60318;SDS011;46163;52.306;5.634;2023-06-14T12:54:45;1.33;;;1.20;;
60318;SDS011;46163;52.306;5.634;2023-06-14T12:57:11;1.50;;;1.40;;
60318;SDS011;46163;52.306;5.634;2023-06-14T12:59:36;3.63;;;1.38;;
60318;SDS011;46163;52.306;5.634;2023-06-14T13:02:18;2.70;;;1.33;;
60318;SDS011;46163;52.306;5.634;2023-06-14T13:04:47;3.10;;;1.45;;
60318;SDS011;46163;52.306;5.634;2023-06-14T13:07:13;1.52;;;1.42;;
60318;SDS011;46163;52.306;5.634;2023-06-14T13:09:40;4.10;;;1.50;;
60318;SDS011;46163;52.306;5.634;2023-06-14T13:12:06;3.17;;;1.80;;
60318;SDS011;46163;52.306;5.634;2023-06-14T13:14:32;2.88;;;1.52;;
60318;SDS011;46163;52.306;5.634;2023-06-14T13:16:58;4.43;;;1.40;;
60318;SDS011;46163;52.306;5.634;2023-06-14T13:19:24;3.72;;;1.50;;
60318;SDS011;46163;52.306;5.634;2023-06-14T13:21:50;2.50;;;1.38;;
60318;SDS011;46163;52.306;5.634;2023-06-14T13:24:15;2.03;;;1.25;;
60318;SDS011;46163;52.306;5.634;2023-06-14T13:26:41;1.60;;;1.50;;
60318;SDS011;46163;52.306;5.634;2023-06-14T13:29:07;3.60;;;1.52;;
60318;SDS011;46163;52.306;5.634;2023-06-14T13:31:32;2.85;;;1.50;;
60318;SDS011;46163;52.306;5.634;2023-06-14T13:33:58;1.73;;;1.40;;
60318;SDS011;46163;52.306;5.634;2023-06-14T13:38:51;3.30;;;1.30;;
60318;SDS011;46163;52.306;5.634;2023-06-14T13:41:18;1.63;;;1.50;;
60318;SDS011;46163;52.306;5.634;2023-06-14T13:43:43;1.50;;;1.40;;
60318;SDS011;46163;52.306;5.634;2023-06-14T13:46:08;3.72;;;1.75;;
60318;SDS011;46163;52.306;5.634;2023-06-14T13:48:34;2.30;;;1.45;;
60318;SDS011;46163;52.306;5.634;2023-06-14T13:51:00;2.53;;;1.35;;
60318;SDS011;46163;52.306;5.634;2023-06-14T13:53:25;1.60;;;1.50;;
60318;SDS011;46163;52.306;5.634;2023-06-14T13:55:51;1.77;;;1.63;;
60318;SDS011;46163;52.306;5.634;2023-06-14T13:58:17;1.92;;;1.45;;
60318;SDS011;46163;52.306;5.634;2023-06-14T14:00:43;2.65;;;1.33;;
60318;SDS011;46163;52.306;5.634;2023-06-14T14:03:09;2.28;;;1.45;;
60318;SDS011;46163;52.306;5.634;2023-06-14T14:05:35;2.20;;;1.50;;
60318;SDS011;46163;52.306;5.634;2023-06-14T14:08:00;1.50;;;1.40;;
60318;SDS011;46163;52.306;5.634;2023-06-14T14:10:27;1.55;;;1.38;;
60318;SDS011;46163;52.306;5.634;2023-06-14T14:12:52;1.60;;;1.50;;
60318;SDS011;46163;52.306;5.634;2023-06-14T14:15:19;1.35;;;1.35;;
60318;SDS011;46163;52.306;5.634;2023-06-14T14:17:45;1.33;;;1.23;;
60318;SDS011;46163;52.306;5.634;2023-06-14T14:20:12;1.88;;;1.30;;
60318;SDS011;46163;52.306;5.634;2023-06-14T14:22:40;2.63;;;1.30;;
60318;SDS011;46163;52.306;5.634;2023-06-14T14:25:09;2.15;;;1.55;;
60318;SDS011;46163;52.306;5.634;2023-06-14T14:27:35;1.27;;;1.27;;
60318;SDS011;46163;52.306;5.634;2023-06-14T14:30:02;2.55;;;1.92;;
60318;SDS011;46163;52.306;5.634;2023-06-14T14:32:28;1.63;;;1.30;;
60318;SDS011;46163;52.306;5.634;2023-06-14T14:34:54;3.33;;;1.48;;
60318;SDS011;46163;52.306;5.634;2023-06-14T14:37:19;1.67;;;1.42;;
60318;SDS011;46163;52.306;5.634;2023-06-14T14:39:45;2.17;;;1.50;;
60318;SDS011;46163;52.306;5.634;2023-06-14T14:42:11;1.67;;;1.58;;
60318;SDS011;46163;52.306;5.634;2023-06-14T14:44:38;1.45;;;1.33;;
60318;SDS011;46163;52.306;5.634;2023-06-14T14:47:03;1.73;;;1.42;;
60318;SDS011;46163;52.306;5.634;2023-06-14T14:49:30;3.72;;;1.70;;
60318;SDS011;46163;52.306;5.634;2023-06-14T14:51:56;1.50;;;1.40;;
60318;SDS011;46163;52.306;5.634;2023-06-14T14:54:22;1.35;;;1.35;;
60318;SDS011;46163;52.306;5.634;2023-06-14T14:56:48;1.85;;;1.15;;
60318;SDS011;46163;52.306;5.634;2023-06-14T14:59:16;1.30;;;1.30;;
60318;SDS011;46163;52.306;5.634;2023-06-14T15:01:42;1.35;;;1.25;;
60318;SDS011;46163;52.306;5.634;2023-06-14T15:04:07;1.60;;;1.50;;
60318;SDS011;46163;52.306;5.634;2023-06-14T15:06:33;1.48;;;1.33;;
60318;SDS011;46163;52.306;5.634;2023-06-14T15:09:00;1.85;;;1.30;;
60318;SDS011;46163;52.306;5.634;2023-06-14T15:11:26;3.17;;;1.50;;
60318;SDS011;46163;52.306;5.634;2023-06-14T15:13:54;1.95;;;1.40;;
60318;SDS011;46163;52.306;5.634;2023-06-14T15:16:19;4.05;;;1.52;;
60318;SDS011;46163;52.306;5.634;2023-06-14T15:18:45;3.72;;;1.40;;
60318;SDS011;46163;52.306;5.634;2023-06-14T15:21:11;1.27;;;1.10;;
60318;SDS011;46163;52.306;5.634;2023-06-14T15:23:37;1.60;;;1.38;;
60318;SDS011;46163;52.306;5.634;2023-06-14T15:26:03;4.05;;;1.38;;
60318;SDS011;46163;52.306;5.634;2023-06-14T15:28:28;1.40;;;1.30;;
60318;SDS011;46163;52.306;5.634;2023-06-14T15:30:55;5.82;;;1.50;;
60318;SDS011;46163;52.306;5.634;2023-06-14T15:33:21;1.45;;;1.27;;
60318;SDS011;46163;52.306;5.634;2023-06-14T15:35:47;1.20;;;1.20;;